sensor_id;sensor_type;location;lat;lon;timestamp;temperature;humidity
39865;DHT22;25538;48.392;9.976;2022-08-21T00:02:02;15.70;99.90
39865;DHT22;25538;48.392;9.976;2022-08-21T00:04:28;15.70;99.90
39865;DHT22;25538;48.392;9.976;2022-08-21T00:06:55;15.70;99.90
39865;DHT22;25538;48.392;9.976;2022-08-21T00:09:21;15.70;99.90
39865;DHT22;25538;48.392;9.976;2022-08-21T00:11:47;15.70;99.90
39865;DHT22;25538;48.392;9.976;2022-08-21T00:14:14;15.70;99.90
39865;DHT22;25538;48.392;9.976;2022-08-21T00:16:41;15.70;99.90
39865;DHT22;25538;48.392;9.976;2022-08-21T00:19:07;15.60;99.90
39865;DHT22;25538;48.392;9.976;2022-08-21T00:21:35;15.60;99.90
39865;DHT22;25538;48.392;9.976;2022-08-21T00:24:01;15.60;99.90
39865;DHT22;25538;48.392;9.976;2022-08-21T00:26:27;15.50;99.90
39865;DHT22;25538;48.392;9.976;2022-08-21T00:28:53;15.50;99.90
39865;DHT22;25538;48.392;9.976;2022-08-21T00:31:19;15.40;99.90
39865;DHT22;25538;48.392;9.976;2022-08-21T00:33:45;15.40;99.90
39865;DHT22;25538;48.392;9.976;2022-08-21T00:36:12;15.40;99.90
39865;DHT22;25538;48.392;9.976;2022-08-21T00:38:38;15.40;99.90
39865;DHT22;25538;48.392;9.976;2022-08-21T00:41:08;15.40;99.90
39865;DHT22;25538;48.392;9.976;2022-08-21T00:43:36;15.40;99.90
39865;DHT22;25538;48.392;9.976;2022-08-21T00:46:04;15.30;99.90
39865;DHT22;25538;48.392;9.976;2022-08-21T00:48:30;15.30;99.90
39865;DHT22;25538;48.392;9.976;2022-08-21T00:51:05;15.30;99.90
39865;DHT22;25538;48.392;9.976;2022-08-21T00:53:33;15.20;99.90
39865;DHT22;25538;48.392;9.976;2022-08-21T00:56:01;15.20;99.90
39865;DHT22;25538;48.392;9.976;2022-08-21T00:58:29;15.20;99.90
39865;DHT22;25538;48.392;9.976;2022-08-21T01:00:59;15.10;99.90
39865;DHT22;25538;48.392;9.976;2022-08-21T01:03:25;15.10;99.90
39865;DHT22;25538;48.392;9.976;2022-08-21T01:05:52;15.00;99.90
39865;DHT22;25538;48.392;9.976;2022-08-21T01:08:19;14.90;99.90
39865;DHT22;25538;48.392;9.976;2022-08-21T01:10:46;14.90;99.90
39865;DHT22;25538;48.392;9.976;2022-08-21T01:13:17;14.90;99.90
39865;DHT22;25538;48.392;9.976;2022-08-21T01:15:46;14.80;99.90
39865;DHT22;25538;48.392;9.976;2022-08-21T01:18:14;14.80;99.90
39865;DHT22;25538;48.392;9.976;2022-08-21T01:20:44;14.70;99.90
39865;DHT22;25538;48.392;9.976;2022-08-21T01:23:11;14.80;99.90
39865;DHT22;25538;48.392;9.976;2022-08-21T01:25:38;14.80;99.90
39865;DHT22;25538;48.392;9.976;2022-08-21T01:28:11;14.70;99.90
39865;DHT22;25538;48.392;9.976;2022-08-21T01:30:39;14.70;99.90
39865;DHT22;25538;48.392;9.976;2022-08-21T01:33:04;14.70;99.90
39865;DHT22;25538;48.392;9.976;2022-08-21T01:35:30;14.60;99.90
39865;DHT22;25538;48.392;9.976;2022-08-21T01:37:56;14.60;99.90
39865;DHT22;25538;48.392;9.976;2022-08-21T01:40:22;14.60;99.90
39865;DHT22;25538;48.392;9.976;2022-08-21T01:42:48;14.50;99.90
39865;DHT22;25538;48.392;9.976;2022-08-21T01:45:15;14.50;99.90
39865;DHT22;25538;48.392;9.976;2022-08-21T01:47:42;14.50;99.90
39865;DHT22;25538;48.392;9.976;2022-08-21T01:50:13;14.50;99.90
39865;DHT22;25538;48.392;9.976;2022-08-21T01:52:40;14.50;99.90
39865;DHT22;25538;48.392;9.976;2022-08-21T01:55:07;14.50;99.90
39865;DHT22;25538;48.392;9.976;2022-08-21T01:57:34;14.40;99.90
39865;DHT22;25538;48.392;9.976;2022-08-21T02:00:00;14.50;99.90
39865;DHT22;25538;48.392;9.976;2022-08-21T02:02:26;14.40;99.90
39865;DHT22;25538;48.392;9.976;2022-08-21T02:04:52;14.40;99.90
39865;DHT22;25538;48.392;9.976;2022-08-21T02:07:18;14.40;99.90
39865;DHT22;25538;48.392;9.976;2022-08-21T02:09:44;14.40;99.90
39865;DHT22;25538;48.392;9.976;2022-08-21T02:12:10;14.40;99.90
39865;DHT22;25538;48.392;9.976;2022-08-21T02:14:37;14.40;99.90
39865;DHT22;25538;48.392;9.976;2022-08-21T02:17:04;14.30;99.90
39865;DHT22;25538;48.392;9.976;2022-08-21T02:19:30;14.30;99.90
39865;DHT22;25538;48.392;9.976;2022-08-21T02:21:55;14.30;99.90
39865;DHT22;25538;48.392;9.976;2022-08-21T02:24:21;14.30;99.90
39865;DHT22;25538;48.392;9.976;2022-08-21T02:26:47;14.30;99.90
39865;DHT22;25538;48.392;9.976;2022-08-21T02:29:13;14.30;99.90
39865;DHT22;25538;48.392;9.976;2022-08-21T02:31:39;14.30;99.90
39865;DHT22;25538;48.392;9.976;2022-08-21T02:34:05;14.30;99.90
39865;DHT22;25538;48.392;9.976;2022-08-21T02:36:31;14.30;99.90
39865;DHT22;25538;48.392;9.976;2022-08-21T02:38:57;14.30;99.90
39865;DHT22;25538;48.392;9.976;2022-08-21T02:41:24;14.30;99.90
39865;DHT22;25538;48.392;9.976;2022-08-21T02:43:49;14.30;99.90
39865;DHT22;25538;48.392;9.976;2022-08-21T02:46:18;14.30;99.90
39865;DHT22;25538;48.392;9.976;2022-08-21T02:48:45;14.20;99.90
39865;DHT22;25538;48.392;9.976;2022-08-21T02:51:17;14.20;99.90
39865;DHT22;25538;48.392;9.976;2022-08-21T02:53:45;14.10;99.90
39865;DHT22;25538;48.392;9.976;2022-08-21T02:56:14;14.10;99.90
39865;DHT22;25538;48.392;9.976;2022-08-21T02:58:49;14.10;99.90
39865;DHT22;25538;48.392;9.976;2022-08-21T03:01:17;14.00;99.90
39865;DHT22;25538;48.392;9.976;2022-08-21T03:03:45;14.00;99.90
39865;DHT22;25538;48.392;9.976;2022-08-21T03:06:14;14.00;99.90
39865;DHT22;25538;48.392;9.976;2022-08-21T03:08:41;14.00;99.90
39865;DHT22;25538;48.392;9.976;2022-08-21T03:11:07;14.00;99.90
39865;DHT22;25538;48.392;9.976;2022-08-21T03:13:33;14.00;99.90
39865;DHT22;25538;48.392;9.976;2022-08-21T03:15:59;14.00;99.90
39865;DHT22;25538;48.392;9.976;2022-08-21T03:18:25;14.00;99.90
39865;DHT22;25538;48.392;9.976;2022-08-21T03:20:51;14.00;99.90
39865;DHT22;25538;48.392;9.976;2022-08-21T03:23:17;14.00;99.90
39865;DHT22;25538;48.392;9.976;2022-08-21T03:25:44;14.00;99.90
39865;DHT22;25538;48.392;9.976;2022-08-21T03:28:14;13.90;99.90
39865;DHT22;25538;48.392;9.976;2022-08-21T03:30:42;13.90;99.90
39865;DHT22;25538;48.392;9.976;2022-08-21T03:33:09;13.90;99.90
39865;DHT22;25538;48.392;9.976;2022-08-21T03:35:34;13.90;99.90
39865;DHT22;25538;48.392;9.976;2022-08-21T03:38:01;13.90;99.90
39865;DHT22;25538;48.392;9.976;2022-08-21T03:40:27;13.90;99.90
39865;DHT22;25538;48.392;9.976;2022-08-21T03:42:53;13.80;99.90
39865;DHT22;25538;48.392;9.976;2022-08-21T03:45:20;13.80;99.90
39865;DHT22;25538;48.392;9.976;2022-08-21T03:47:59;13.80;99.90
39865;DHT22;25538;48.392;9.976;2022-08-21T03:50:29;13.70;99.90
39865;DHT22;25538;48.392;9.976;2022-08-21T03:52:55;13.60;99.90
39865;DHT22;25538;48.392;9.976;2022-08-21T03:55:22;13.60;99.90
39865;DHT22;25538;48.392;9.976;2022-08-21T03:57:48;13.60;99.90
39865;DHT22;25538;48.392;9.976;2022-08-21T04:00:15;13.60;99.90
39865;DHT22;25538;48.392;9.976;2022-08-21T04:02:42;13.60;99.90
39865;DHT22;25538;48.392;9.976;2022-08-21T04:05:10;13.50;99.90
39865;DHT22;25538;48.392;9.976;2022-08-21T04:10:11;13.50;99.90
39865;DHT22;25538;48.392;9.976;2022-08-21T04:12:37;13.50;99.90
39865;DHT22;25538;48.392;9.976;2022-08-21T04:15:03;13.50;99.90
39865;DHT22;25538;48.392;9.976;2022-08-21T04:17:29;13.50;99.90
39865;DHT22;25538;48.392;9.976;2022-08-21T04:19:55;13.50;99.90
39865;DHT22;25538;48.392;9.976;2022-08-21T04:22:22;13.40;99.90
39865;DHT22;25538;48.392;9.976;2022-08-21T04:24:47;13.40;99.90
39865;DHT22;25538;48.392;9.976;2022-08-21T04:27:13;13.40;99.90
39865;DHT22;25538;48.392;9.976;2022-08-21T04:29:39;13.50;99.90
39865;DHT22;25538;48.392;9.976;2022-08-21T04:32:05;13.50;99.90
39865;DHT22;25538;48.392;9.976;2022-08-21T04:34:31;13.50;99.90
39865;DHT22;25538;48.392;9.976;2022-08-21T04:36:57;13.50;99.90
39865;DHT22;25538;48.392;9.976;2022-08-21T04:39:23;13.50;99.90
39865;DHT22;25538;48.392;9.976;2022-08-21T04:41:49;13.50;99.90
39865;DHT22;25538;48.392;9.976;2022-08-21T04:44:15;13.50;99.90
39865;DHT22;25538;48.392;9.976;2022-08-21T04:46:41;13.50;99.90
39865;DHT22;25538;48.392;9.976;2022-08-21T04:49:06;13.50;99.90
39865;DHT22;25538;48.392;9.976;2022-08-21T04:51:34;13.50;99.90
39865;DHT22;25538;48.392;9.976;2022-08-21T04:54:09;13.40;99.90
39865;DHT22;25538;48.392;9.976;2022-08-21T04:56:58;13.40;99.90
39865;DHT22;25538;48.392;9.976;2022-08-21T04:59:33;13.30;99.90
39865;DHT22;25538;48.392;9.976;2022-08-21T05:02:01;13.30;99.90
39865;DHT22;25538;48.392;9.976;2022-08-21T05:04:30;13.30;99.90
39865;DHT22;25538;48.392;9.976;2022-08-21T05:07:02;13.30;99.90
39865;DHT22;25538;48.392;9.976;2022-08-21T05:09:29;13.30;99.90
39865;DHT22;25538;48.392;9.976;2022-08-21T05:11:56;13.30;99.90
39865;DHT22;25538;48.392;9.976;2022-08-21T05:14:22;13.40;99.90
39865;DHT22;25538;48.392;9.976;2022-08-21T05:16:48;13.40;99.90
39865;DHT22;25538;48.392;9.976;2022-08-21T05:19:14;13.50;99.90
39865;DHT22;25538;48.392;9.976;2022-08-21T05:21:43;13.60;99.90
39865;DHT22;25538;48.392;9.976;2022-08-21T05:24:10;13.60;99.90
39865;DHT22;25538;48.392;9.976;2022-08-21T05:26:37;13.70;99.90
39865;DHT22;25538;48.392;9.976;2022-08-21T05:29:04;13.70;99.90
39865;DHT22;25538;48.392;9.976;2022-08-21T05:31:30;13.70;99.90
39865;DHT22;25538;48.392;9.976;2022-08-21T05:33:56;13.70;99.90
39865;DHT22;25538;48.392;9.976;2022-08-21T05:36:22;13.70;99.90
39865;DHT22;25538;48.392;9.976;2022-08-21T05:38:48;13.70;99.90
39865;DHT22;25538;48.392;9.976;2022-08-21T05:41:14;13.90;99.90
39865;DHT22;25538;48.392;9.976;2022-08-21T05:43:40;13.90;99.90
39865;DHT22;25538;48.392;9.976;2022-08-21T05:46:07;13.90;99.90
39865;DHT22;25538;48.392;9.976;2022-08-21T05:48:34;13.90;99.90
39865;DHT22;25538;48.392;9.976;2022-08-21T05:51:07;13.90;99.90
39865;DHT22;25538;48.392;9.976;2022-08-21T05:53:33;14.00;99.90
39865;DHT22;25538;48.392;9.976;2022-08-21T05:56:00;14.00;99.90
39865;DHT22;25538;48.392;9.976;2022-08-21T05:58:26;14.10;99.90
39865;DHT22;25538;48.392;9.976;2022-08-21T06:00:51;14.20;99.90
39865;DHT22;25538;48.392;9.976;2022-08-21T06:03:21;14.30;99.90
39865;DHT22;25538;48.392;9.976;2022-08-21T06:05:47;14.30;99.90
39865;DHT22;25538;48.392;9.976;2022-08-21T06:08:14;14.20;99.90
39865;DHT22;25538;48.392;9.976;2022-08-21T06:10:42;14.20;99.90
39865;DHT22;25538;48.392;9.976;2022-08-21T06:13:08;14.20;99.90
39865;DHT22;25538;48.392;9.976;2022-08-21T06:15:34;14.30;99.90
39865;DHT22;25538;48.392;9.976;2022-08-21T06:18:00;14.30;99.90
39865;DHT22;25538;48.392;9.976;2022-08-21T06:20:26;14.40;99.90
39865;DHT22;25538;48.392;9.976;2022-08-21T06:22:52;14.40;99.90
39865;DHT22;25538;48.392;9.976;2022-08-21T06:25:18;14.40;99.90
39865;DHT22;25538;48.392;9.976;2022-08-21T06:27:44;14.50;99.90
39865;DHT22;25538;48.392;9.976;2022-08-21T06:30:11;14.50;99.90
39865;DHT22;25538;48.392;9.976;2022-08-21T06:32:37;14.60;99.90
39865;DHT22;25538;48.392;9.976;2022-08-21T06:35:04;14.60;99.90
39865;DHT22;25538;48.392;9.976;2022-08-21T06:37:31;14.70;99.90
39865;DHT22;25538;48.392;9.976;2022-08-21T06:39:56;14.80;99.90
39865;DHT22;25538;48.392;9.976;2022-08-21T06:42:22;14.80;99.90
39865;DHT22;25538;48.392;9.976;2022-08-21T06:44:48;14.90;99.90
39865;DHT22;25538;48.392;9.976;2022-08-21T06:47:15;15.00;99.90
39865;DHT22;25538;48.392;9.976;2022-08-21T06:49:41;15.10;99.90
39865;DHT22;25538;48.392;9.976;2022-08-21T06:52:11;15.10;99.90
39865;DHT22;25538;48.392;9.976;2022-08-21T06:54:38;15.10;99.90
39865;DHT22;25538;48.392;9.976;2022-08-21T06:57:05;15.10;99.90
39865;DHT22;25538;48.392;9.976;2022-08-21T06:59:32;15.30;99.90
39865;DHT22;25538;48.392;9.976;2022-08-21T07:01:59;15.30;99.90
39865;DHT22;25538;48.392;9.976;2022-08-21T07:04:25;15.40;99.90
39865;DHT22;25538;48.392;9.976;2022-08-21T07:06:51;15.50;99.90
39865;DHT22;25538;48.392;9.976;2022-08-21T07:09:17;15.70;99.90
39865;DHT22;25538;48.392;9.976;2022-08-21T07:11:47;15.90;99.90
39865;DHT22;25538;48.392;9.976;2022-08-21T07:14:13;16.00;99.90
39865;DHT22;25538;48.392;9.976;2022-08-21T07:16:39;16.10;99.90
39865;DHT22;25538;48.392;9.976;2022-08-21T07:19:05;16.20;99.90
39865;DHT22;25538;48.392;9.976;2022-08-21T07:21:31;16.30;99.90
39865;DHT22;25538;48.392;9.976;2022-08-21T07:23:57;16.40;99.90
39865;DHT22;25538;48.392;9.976;2022-08-21T07:26:24;16.60;99.90
39865;DHT22;25538;48.392;9.976;2022-08-21T07:28:50;16.70;99.90
39865;DHT22;25538;48.392;9.976;2022-08-21T07:31:18;16.90;99.90
39865;DHT22;25538;48.392;9.976;2022-08-21T07:33:45;17.00;99.90
39865;DHT22;25538;48.392;9.976;2022-08-21T07:36:11;17.10;99.90
39865;DHT22;25538;48.392;9.976;2022-08-21T07:38:37;17.30;99.90
39865;DHT22;25538;48.392;9.976;2022-08-21T07:41:10;17.30;99.90
39865;DHT22;25538;48.392;9.976;2022-08-21T07:43:38;17.50;99.90
39865;DHT22;25538;48.392;9.976;2022-08-21T07:46:04;17.80;99.90
39865;DHT22;25538;48.392;9.976;2022-08-21T07:48:30;18.00;99.90
39865;DHT22;25538;48.392;9.976;2022-08-21T07:50:56;18.20;99.90
39865;DHT22;25538;48.392;9.976;2022-08-21T07:53:22;18.50;99.90
39865;DHT22;25538;48.392;9.976;2022-08-21T07:55:48;18.80;99.90
39865;DHT22;25538;48.392;9.976;2022-08-21T07:58:14;18.80;99.90
39865;DHT22;25538;48.392;9.976;2022-08-21T08:00:40;19.00;99.90
39865;DHT22;25538;48.392;9.976;2022-08-21T08:03:06;19.20;99.90
39865;DHT22;25538;48.392;9.976;2022-08-21T08:05:32;19.30;99.90
39865;DHT22;25538;48.392;9.976;2022-08-21T08:07:58;19.60;99.90
39865;DHT22;25538;48.392;9.976;2022-08-21T08:10:24;19.90;99.90
39865;DHT22;25538;48.392;9.976;2022-08-21T08:12:51;20.20;99.90
39865;DHT22;25538;48.392;9.976;2022-08-21T08:15:21;20.50;99.90
39865;DHT22;25538;48.392;9.976;2022-08-21T08:17:47;20.70;99.90
39865;DHT22;25538;48.392;9.976;2022-08-21T08:20:15;20.70;99.90
39865;DHT22;25538;48.392;9.976;2022-08-21T08:22:42;21.10;99.90
39865;DHT22;25538;48.392;9.976;2022-08-21T08:25:10;21.30;99.90
39865;DHT22;25538;48.392;9.976;2022-08-21T08:27:37;21.60;99.90
39865;DHT22;25538;48.392;9.976;2022-08-21T08:30:05;21.70;99.90
39865;DHT22;25538;48.392;9.976;2022-08-21T08:32:31;21.90;99.90
39865;DHT22;25538;48.392;9.976;2022-08-21T08:34:57;22.10;99.90
39865;DHT22;25538;48.392;9.976;2022-08-21T08:37:23;22.40;99.90
39865;DHT22;25538;48.392;9.976;2022-08-21T08:39:49;22.70;99.90
39865;DHT22;25538;48.392;9.976;2022-08-21T08:42:20;23.00;99.90
39865;DHT22;25538;48.392;9.976;2022-08-21T08:44:51;23.50;99.90
39865;DHT22;25538;48.392;9.976;2022-08-21T08:47:21;23.90;99.90
39865;DHT22;25538;48.392;9.976;2022-08-21T08:52:30;24.60;99.90
39865;DHT22;25538;48.392;9.976;2022-08-21T08:55:15;25.10;99.90
39865;DHT22;25538;48.392;9.976;2022-08-21T08:57:45;26.00;99.90
39865;DHT22;25538;48.392;9.976;2022-08-21T09:00:13;26.50;99.90
39865;DHT22;25538;48.392;9.976;2022-08-21T09:02:42;26.70;99.90
39865;DHT22;25538;48.392;9.976;2022-08-21T09:05:15;27.20;99.90
39865;DHT22;25538;48.392;9.976;2022-08-21T09:21:43;29.60;90.40
39865;DHT22;25538;48.392;9.976;2022-08-21T09:24:49;30.20;90.00
39865;DHT22;25538;48.392;9.976;2022-08-21T09:27:18;31.00;89.60
39865;DHT22;25538;48.392;9.976;2022-08-21T09:29:48;31.40;82.90
39865;DHT22;25538;48.392;9.976;2022-08-21T09:32:24;31.70;73.70
39865;DHT22;25538;48.392;9.976;2022-08-21T09:35:13;32.10;68.70
39865;DHT22;25538;48.392;9.976;2022-08-21T09:38:03;32.70;69.00
39865;DHT22;25538;48.392;9.976;2022-08-21T09:40:44;33.10;63.10
39865;DHT22;25538;48.392;9.976;2022-08-21T09:43:18;34.00;59.20
39865;DHT22;25538;48.392;9.976;2022-08-21T09:45:47;34.60;56.70
39865;DHT22;25538;48.392;9.976;2022-08-21T09:48:24;34.80;56.20
39865;DHT22;25538;48.392;9.976;2022-08-21T09:50:51;35.00;51.70
39865;DHT22;25538;48.392;9.976;2022-08-21T09:53:24;35.20;51.90
39865;DHT22;25538;48.392;9.976;2022-08-21T09:55:52;35.00;48.50
39865;DHT22;25538;48.392;9.976;2022-08-21T09:58:41;35.50;51.50
39865;DHT22;25538;48.392;9.976;2022-08-21T10:01:17;35.10;50.00
39865;DHT22;25538;48.392;9.976;2022-08-21T10:03:44;34.70;51.00
39865;DHT22;25538;48.392;9.976;2022-08-21T10:06:25;35.90;46.90
39865;DHT22;25538;48.392;9.976;2022-08-21T10:08:51;37.20;41.70
39865;DHT22;25538;48.392;9.976;2022-08-21T10:11:28;36.50;47.80
39865;DHT22;25538;48.392;9.976;2022-08-21T10:16:41;37.10;45.40
39865;DHT22;25538;48.392;9.976;2022-08-21T10:19:20;37.60;45.90
39865;DHT22;25538;48.392;9.976;2022-08-21T10:25:13;38.30;40.80
39865;DHT22;25538;48.392;9.976;2022-08-21T10:30:00;38.10;40.10
39865;DHT22;25538;48.392;9.976;2022-08-21T10:49:30;35.60;45.40
39865;DHT22;25538;48.392;9.976;2022-08-21T10:57:32;36.20;42.50
39865;DHT22;25538;48.392;9.976;2022-08-21T11:00:05;35.80;42.90
39865;DHT22;25538;48.392;9.976;2022-08-21T11:02:40;37.20;42.90
39865;DHT22;25538;48.392;9.976;2022-08-21T11:05:31;38.20;41.40
39865;DHT22;25538;48.392;9.976;2022-08-21T11:08:22;39.30;39.50
39865;DHT22;25538;48.392;9.976;2022-08-21T11:11:08;40.70;38.30
39865;DHT22;25538;48.392;9.976;2022-08-21T11:13:49;42.20;33.80
39865;DHT22;25538;48.392;9.976;2022-08-21T11:27:39;39.80;33.20
39865;DHT22;25538;48.392;9.976;2022-08-21T11:30:06;39.60;33.10
39865;DHT22;25538;48.392;9.976;2022-08-21T11:33:02;38.60;34.90
39865;DHT22;25538;48.392;9.976;2022-08-21T11:38:24;38.60;35.60
39865;DHT22;25538;48.392;9.976;2022-08-21T11:55:36;40.10;33.60
39865;DHT22;25538;48.392;9.976;2022-08-21T11:57:39;41.10;33.40
39865;DHT22;25538;48.392;9.976;2022-08-21T12:00:16;40.90;32.30
39865;DHT22;25538;48.392;9.976;2022-08-21T12:02:53;41.50;30.70
39865;DHT22;25538;48.392;9.976;2022-08-21T12:05:42;40.70;32.80
39865;DHT22;25538;48.392;9.976;2022-08-21T12:11:23;41.40;34.70
39865;DHT22;25538;48.392;9.976;2022-08-21T12:16:34;41.70;32.30
39865;DHT22;25538;48.392;9.976;2022-08-21T12:19:27;41.40;31.70
39865;DHT22;25538;48.392;9.976;2022-08-21T12:22:08;40.70;34.50
39865;DHT22;25538;48.392;9.976;2022-08-21T12:24:39;41.30;32.70
39865;DHT22;25538;48.392;9.976;2022-08-21T12:29:52;43.30;31.20
39865;DHT22;25538;48.392;9.976;2022-08-21T12:32:26;43.10;31.10
39865;DHT22;25538;48.392;9.976;2022-08-21T12:35:17;43.40;29.00
39865;DHT22;25538;48.392;9.976;2022-08-21T12:37:56;42.30;32.40
39865;DHT22;25538;48.392;9.976;2022-08-21T12:40:40;42.50;29.90
39865;DHT22;25538;48.392;9.976;2022-08-21T12:43:20;43.00;29.50
39865;DHT22;25538;48.392;9.976;2022-08-21T12:45:49;41.90;32.40
39865;DHT22;25538;48.392;9.976;2022-08-21T12:48:31;41.60;30.80
39865;DHT22;25538;48.392;9.976;2022-08-21T12:53:50;43.10;29.40
39865;DHT22;25538;48.392;9.976;2022-08-21T12:56:19;42.70;29.80
39865;DHT22;25538;48.392;9.976;2022-08-21T12:58:48;42.20;30.40
39865;DHT22;25538;48.392;9.976;2022-08-21T13:01:25;42.60;30.70
39865;DHT22;25538;48.392;9.976;2022-08-21T13:03:58;43.80;31.50
39865;DHT22;25538;48.392;9.976;2022-08-21T13:06:26;45.10;30.80
39865;DHT22;25538;48.392;9.976;2022-08-21T13:08:58;46.10;28.90
39865;DHT22;25538;48.392;9.976;2022-08-21T13:11:29;45.90;28.50
39865;DHT22;25538;48.392;9.976;2022-08-21T13:13:55;45.30;30.00
39865;DHT22;25538;48.392;9.976;2022-08-21T13:16:26;46.30;28.70
39865;DHT22;25538;48.392;9.976;2022-08-21T13:19:05;46.00;28.60
39865;DHT22;25538;48.392;9.976;2022-08-21T13:21:39;46.50;28.20
39865;DHT22;25538;48.392;9.976;2022-08-21T13:24:13;46.50;28.80
39865;DHT22;25538;48.392;9.976;2022-08-21T13:26:40;44.80;29.60
39865;DHT22;25538;48.392;9.976;2022-08-21T13:29:09;43.10;31.10
39865;DHT22;25538;48.392;9.976;2022-08-21T13:31:38;43.00;31.50
39865;DHT22;25538;48.392;9.976;2022-08-21T13:34:06;43.90;30.10
39865;DHT22;25538;48.392;9.976;2022-08-21T13:36:37;44.70;30.40
39865;DHT22;25538;48.392;9.976;2022-08-21T13:39:08;45.20;29.60
39865;DHT22;25538;48.392;9.976;2022-08-21T13:41:37;45.90;28.60
39865;DHT22;25538;48.392;9.976;2022-08-21T13:44:13;46.70;28.70
39865;DHT22;25538;48.392;9.976;2022-08-21T13:46:39;46.60;28.40
39865;DHT22;25538;48.392;9.976;2022-08-21T13:49:06;46.10;28.10
39865;DHT22;25538;48.392;9.976;2022-08-21T13:51:35;46.20;28.60
39865;DHT22;25538;48.392;9.976;2022-08-21T13:54:13;47.00;28.30
39865;DHT22;25538;48.392;9.976;2022-08-21T13:56:44;46.50;27.90
39865;DHT22;25538;48.392;9.976;2022-08-21T13:59:11;46.70;28.20
39865;DHT22;25538;48.392;9.976;2022-08-21T14:01:48;46.60;27.40
39865;DHT22;25538;48.392;9.976;2022-08-21T14:04:23;46.30;28.50
39865;DHT22;25538;48.392;9.976;2022-08-21T14:06:51;46.20;27.10
39865;DHT22;25538;48.392;9.976;2022-08-21T14:09:41;45.80;28.00
39865;DHT22;25538;48.392;9.976;2022-08-21T14:13:28;46.30;28.40
39865;DHT22;25538;48.392;9.976;2022-08-21T14:15:28;46.30;27.30
39865;DHT22;25538;48.392;9.976;2022-08-21T14:18:16;46.30;26.50
39865;DHT22;25538;48.392;9.976;2022-08-21T14:20:43;46.20;27.20
39865;DHT22;25538;48.392;9.976;2022-08-21T14:23:09;45.60;27.70
39865;DHT22;25538;48.392;9.976;2022-08-21T14:25:41;45.70;27.30
39865;DHT22;25538;48.392;9.976;2022-08-21T14:30:46;45.00;27.40
39865;DHT22;25538;48.392;9.976;2022-08-21T14:33:27;45.00;28.20
39865;DHT22;25538;48.392;9.976;2022-08-21T14:35:54;45.00;26.70
39865;DHT22;25538;48.392;9.976;2022-08-21T14:38:22;44.50;28.50
39865;DHT22;25538;48.392;9.976;2022-08-21T14:40:57;44.00;28.70
39865;DHT22;25538;48.392;9.976;2022-08-21T14:43:26;44.50;28.70
39865;DHT22;25538;48.392;9.976;2022-08-21T14:45:52;44.00;27.50
39865;DHT22;25538;48.392;9.976;2022-08-21T14:48:18;42.80;29.00
39865;DHT22;25538;48.392;9.976;2022-08-21T14:50:44;41.00;29.70
39865;DHT22;25538;48.392;9.976;2022-08-21T14:53:10;39.80;31.00
39865;DHT22;25538;48.392;9.976;2022-08-21T14:55:36;40.40;29.90
39865;DHT22;25538;48.392;9.976;2022-08-21T14:58:22;40.90;30.10
39865;DHT22;25538;48.392;9.976;2022-08-21T15:00:50;41.50;29.00
39865;DHT22;25538;48.392;9.976;2022-08-21T15:03:17;41.60;29.40
39865;DHT22;25538;48.392;9.976;2022-08-21T15:05:43;42.00;28.60
39865;DHT22;25538;48.392;9.976;2022-08-21T15:08:08;42.20;29.10
39865;DHT22;25538;48.392;9.976;2022-08-21T15:10:35;42.00;29.00
39865;DHT22;25538;48.392;9.976;2022-08-21T15:13:02;41.80;29.50
39865;DHT22;25538;48.392;9.976;2022-08-21T15:15:32;41.60;28.90
39865;DHT22;25538;48.392;9.976;2022-08-21T15:17:59;40.60;30.30
39865;DHT22;25538;48.392;9.976;2022-08-21T15:20:25;40.40;30.80
39865;DHT22;25538;48.392;9.976;2022-08-21T15:22:51;40.20;30.40
39865;DHT22;25538;48.392;9.976;2022-08-21T15:25:18;39.90;30.20
39865;DHT22;25538;48.392;9.976;2022-08-21T15:27:44;40.30;29.70
39865;DHT22;25538;48.392;9.976;2022-08-21T15:30:10;40.10;30.90
39865;DHT22;25538;48.392;9.976;2022-08-21T15:32:36;39.50;32.40
39865;DHT22;25538;48.392;9.976;2022-08-21T15:35:03;39.20;31.40
39865;DHT22;25538;48.392;9.976;2022-08-21T15:37:29;39.30;31.00
39865;DHT22;25538;48.392;9.976;2022-08-21T15:39:55;39.10;32.40
39865;DHT22;25538;48.392;9.976;2022-08-21T15:42:22;38.10;33.50
39865;DHT22;25538;48.392;9.976;2022-08-21T15:44:49;36.70;34.70
39865;DHT22;25538;48.392;9.976;2022-08-21T15:47:18;35.30;37.50
39865;DHT22;25538;48.392;9.976;2022-08-21T15:49:45;34.90;37.90
39865;DHT22;25538;48.392;9.976;2022-08-21T15:52:15;34.30;37.00
39865;DHT22;25538;48.392;9.976;2022-08-21T15:54:41;33.50;38.80
39865;DHT22;25538;48.392;9.976;2022-08-21T15:57:09;32.60;40.00
39865;DHT22;25538;48.392;9.976;2022-08-21T15:59:44;32.10;41.00
39865;DHT22;25538;48.392;9.976;2022-08-21T16:02:15;31.60;41.00
39865;DHT22;25538;48.392;9.976;2022-08-21T16:04:41;31.30;42.50
39865;DHT22;25538;48.392;9.976;2022-08-21T16:07:07;31.20;40.80
39865;DHT22;25538;48.392;9.976;2022-08-21T16:09:33;31.10;42.40
39865;DHT22;25538;48.392;9.976;2022-08-21T16:12:00;31.40;42.90
39865;DHT22;25538;48.392;9.976;2022-08-21T16:14:28;31.50;43.20
39865;DHT22;25538;48.392;9.976;2022-08-21T16:16:55;31.50;42.10
39865;DHT22;25538;48.392;9.976;2022-08-21T16:19:21;31.30;42.60
39865;DHT22;25538;48.392;9.976;2022-08-21T16:21:47;30.90;41.80
39865;DHT22;25538;48.392;9.976;2022-08-21T16:24:13;30.50;41.70
39865;DHT22;25538;48.392;9.976;2022-08-21T16:26:39;30.10;42.50
39865;DHT22;25538;48.392;9.976;2022-08-21T16:29:06;30.00;42.80
39865;DHT22;25538;48.392;9.976;2022-08-21T16:31:33;29.90;43.50
39865;DHT22;25538;48.392;9.976;2022-08-21T16:33:59;29.70;44.20
39865;DHT22;25538;48.392;9.976;2022-08-21T16:36:26;29.60;44.70
39865;DHT22;25538;48.392;9.976;2022-08-21T16:38:53;29.30;45.60
39865;DHT22;25538;48.392;9.976;2022-08-21T16:41:20;29.20;46.60
39865;DHT22;25538;48.392;9.976;2022-08-21T16:43:49;29.00;47.50
39865;DHT22;25538;48.392;9.976;2022-08-21T16:46:17;28.90;47.40
39865;DHT22;25538;48.392;9.976;2022-08-21T16:48:43;28.70;47.50
39865;DHT22;25538;48.392;9.976;2022-08-21T16:51:10;28.40;48.00
39865;DHT22;25538;48.392;9.976;2022-08-21T16:53:36;28.20;48.50
39865;DHT22;25538;48.392;9.976;2022-08-21T16:56:03;27.90;49.90
39865;DHT22;25538;48.392;9.976;2022-08-21T16:58:35;28.00;50.00
39865;DHT22;25538;48.392;9.976;2022-08-21T17:01:09;27.80;49.70
39865;DHT22;25538;48.392;9.976;2022-08-21T17:03:41;27.80;49.90
39865;DHT22;25538;48.392;9.976;2022-08-21T17:06:08;27.70;50.90
39865;DHT22;25538;48.392;9.976;2022-08-21T17:08:35;27.70;50.50
39865;DHT22;25538;48.392;9.976;2022-08-21T17:11:01;27.60;51.50
39865;DHT22;25538;48.392;9.976;2022-08-21T17:13:28;27.50;50.60
39865;DHT22;25538;48.392;9.976;2022-08-21T17:15:54;27.30;51.20